createdAt,value
2023-02-22T00:00:01.081Z,10.63
2023-02-22T00:02:32.591Z,10.49
2023-02-22T00:05:02.227Z,10.44
2023-02-22T00:07:35.870Z,10.61
2023-02-22T00:10:09.169Z,10.66
2023-02-22T00:12:38.899Z,10.66
2023-02-22T00:15:09.156Z,10.60
2023-02-22T00:17:39.137Z,10.62
2023-02-22T00:20:10.097Z,10.60
2023-02-22T00:22:42.687Z,10.54
2023-02-22T00:25:12.989Z,10.50
2023-02-22T00:27:43.187Z,10.40
2023-02-22T00:30:19.185Z,10.58
2023-02-22T00:32:50.581Z,10.36
2023-02-22T00:35:23.573Z,10.21
2023-02-22T00:38:00.410Z,10.47
2023-02-22T00:40:32.981Z,10.51
2023-02-22T00:43:04.161Z,10.44
2023-02-22T00:45:35.863Z,10.35
2023-02-22T00:48:07.242Z,10.42
2023-02-22T00:50:37.316Z,10.51
2023-02-22T00:53:10.446Z,10.40
2023-02-22T00:55:41.233Z,10.41
2023-02-22T00:58:11.364Z,10.55
2023-02-22T01:00:43.014Z,10.41
2023-02-22T01:03:15.166Z,10.57
2023-02-22T01:05:45.622Z,10.46
2023-02-22T01:08:19.404Z,10.62
2023-02-22T01:10:49.633Z,10.32
2023-02-22T01:13:20.073Z,10.47
2023-02-22T01:15:50.044Z,10.42
2023-02-22T01:18:21.991Z,10.27
2023-02-22T01:20:51.656Z,10.60
2023-02-22T01:23:24.025Z,10.67
2023-02-22T01:25:54.198Z,10.52
2023-02-22T01:28:24.857Z,10.27
2023-02-22T01:30:56.782Z,10.53
2023-02-22T01:33:27.436Z,10.56
2023-02-22T01:35:57.067Z,10.67
2023-02-22T01:38:29.513Z,10.70
2023-02-22T01:40:59.273Z,10.59
2023-02-22T01:43:33.414Z,10.69
2023-02-22T01:46:05.346Z,10.53
2023-02-22T01:48:41.088Z,10.67
2023-02-22T01:51:15.593Z,10.53
2023-02-22T01:53:53.630Z,10.60
2023-02-22T01:56:24.736Z,10.50
2023-02-22T01:58:58.484Z,10.65
2023-02-22T02:01:29.558Z,10.33
2023-02-22T02:04:00.876Z,10.66
2023-02-22T02:06:34.246Z,10.52
2023-02-22T02:09:12.832Z,10.55
2023-02-22T02:11:44.392Z,10.50
2023-02-22T02:14:16.291Z,10.74
2023-02-22T02:16:53.350Z,10.77
2023-02-22T02:19:35.091Z,10.79
2023-02-22T02:22:22.366Z,10.61
2023-02-22T02:25:29.450Z,10.79
2023-02-22T02:28:29.960Z,10.76
2023-02-22T02:31:25.903Z,10.74
2023-02-22T02:34:05.526Z,10.52
2023-02-22T02:36:40.610Z,10.77
2023-02-22T02:39:20.307Z,10.80
2023-02-22T02:41:53.287Z,10.67
2023-02-22T02:44:31.665Z,10.82
2023-02-22T02:47:08.149Z,10.71
2023-02-22T02:49:46.838Z,10.64
2023-02-22T02:52:20.862Z,10.81
2023-02-22T02:54:52.079Z,10.58
2023-02-22T02:57:22.025Z,10.81
2023-02-22T02:59:51.759Z,10.75
2023-02-22T03:02:43.888Z,10.65
2023-02-22T03:05:32.993Z,10.58
2023-02-22T03:08:10.913Z,10.53
2023-02-22T03:10:51.215Z,10.57
2023-02-22T03:13:33.525Z,10.62
2023-02-22T03:16:14.228Z,10.45
2023-02-22T03:18:54.541Z,10.46
2023-02-22T03:21:36.584Z,10.27
2023-02-22T03:24:12.699Z,10.43
2023-02-22T03:26:45.315Z,10.42
2023-02-22T03:29:20.258Z,10.14
2023-02-22T03:31:56.056Z,10.39
2023-02-22T03:34:32.404Z,10.25
2023-02-22T03:37:13.974Z,9.95
2023-02-22T03:39:47.307Z,10.04
2023-02-22T03:42:22.501Z,9.94
2023-02-22T03:44:54.462Z,9.78
2023-02-22T03:47:31.408Z,10.13
2023-02-22T03:50:07.041Z,10.10
2023-02-22T03:52:41.592Z,9.99
2023-02-22T03:55:17.833Z,9.99
2023-02-22T03:57:51.906Z,9.98
2023-02-22T04:00:24.696Z,10.02
2023-02-22T04:02:54.728Z,9.95
2023-02-22T04:05:25.989Z,9.91
2023-02-22T04:08:00.133Z,9.78
2023-02-22T04:10:30.716Z,9.70
2023-02-22T04:13:00.860Z,9.78
2023-02-22T04:15:30.615Z,9.69
2023-02-22T04:18:06.925Z,9.67
2023-02-22T04:20:36.603Z,9.71
2023-02-22T04:23:17.215Z,9.45
2023-02-22T04:25:47.066Z,9.56
2023-02-22T04:28:19.366Z,9.24
2023-02-22T04:31:12.136Z,9.31
2023-02-22T04:33:42.156Z,9.36
2023-02-22T04:36:16.084Z,9.26
2023-02-22T04:38:49.248Z,9.22
2023-02-22T04:41:20.869Z,8.97
2023-02-22T04:43:50.543Z,9.15
2023-02-22T04:46:24.020Z,9.01
2023-02-22T04:48:55.170Z,9.25
2023-02-22T04:51:28.054Z,9.23
2023-02-22T04:54:08.686Z,9.24
2023-02-22T04:56:40.649Z,9.22
2023-02-22T04:59:10.294Z,8.78
2023-02-22T05:01:41.451Z,8.54
2023-02-22T05:04:11.108Z,8.80
2023-02-22T05:06:40.775Z,8.69
2023-02-22T05:09:13.110Z,8.81
2023-02-22T05:11:42.848Z,8.65
2023-02-22T05:14:12.809Z,8.66
2023-02-22T05:16:42.531Z,8.35
2023-02-22T05:19:12.134Z,8.40
2023-02-22T05:21:42.099Z,8.71
2023-02-22T05:24:14.426Z,8.35
2023-02-22T05:26:46.104Z,8.45
2023-02-22T05:29:16.172Z,8.49
2023-02-22T05:31:45.894Z,8.59
2023-02-22T05:34:15.639Z,8.26
2023-02-22T05:36:46.593Z,8.45
2023-02-22T05:39:19.036Z,8.08
2023-02-22T05:41:48.732Z,8.06
2023-02-22T05:44:18.476Z,8.07
2023-02-22T05:46:48.177Z,8.12
2023-02-22T05:49:18.514Z,7.66
2023-02-22T05:51:48.095Z,8.06
2023-02-22T05:54:20.419Z,8.03
2023-02-22T05:56:50.571Z,7.71
2023-02-22T05:59:20.903Z,7.82
2023-02-22T06:01:50.533Z,7.56
2023-02-22T06:04:20.338Z,7.69
2023-02-22T06:06:50.000Z,7.67
2023-02-22T06:09:22.370Z,7.90
2023-02-22T06:11:54.381Z,7.96
2023-02-22T06:14:24.423Z,7.88
2023-02-22T06:16:56.947Z,7.81
2023-02-22T06:19:27.118Z,7.62
2023-02-22T06:22:00.027Z,7.74
2023-02-22T06:24:32.287Z,7.55
2023-02-22T06:27:04.709Z,7.64
2023-02-22T06:29:34.368Z,7.57
2023-02-22T06:32:04.105Z,7.50
2023-02-22T06:34:33.859Z,7.54
2023-02-22T06:37:03.462Z,7.42
2023-02-22T06:39:35.703Z,7.58
2023-02-22T06:42:05.412Z,7.53
2023-02-22T06:44:35.490Z,7.53
2023-02-22T06:47:05.262Z,7.36
2023-02-22T06:49:34.889Z,7.39
2023-02-22T06:52:06.746Z,7.26
2023-02-22T06:54:40.004Z,7.35
2023-02-22T06:57:10.310Z,7.36
2023-02-22T06:59:39.955Z,7.54
2023-02-22T07:02:09.794Z,7.60
2023-02-22T07:04:41.041Z,7.53
2023-02-22T07:07:12.658Z,7.53
2023-02-22T07:09:45.646Z,7.53
2023-02-22T07:12:15.360Z,7.64
2023-02-22T07:14:45.684Z,7.64
2023-02-22T07:17:15.387Z,7.71
2023-02-22T07:19:45.003Z,7.94
2023-02-22T07:22:15.199Z,7.64
2023-02-22T07:24:47.975Z,7.93
2023-02-22T07:27:17.823Z,8.05
2023-02-22T07:29:47.563Z,8.13
2023-02-22T07:32:17.529Z,8.14
2023-02-22T07:34:48.688Z,8.23
2023-02-22T07:37:21.722Z,8.24
2023-02-22T07:39:57.392Z,8.29
2023-02-22T07:42:28.549Z,8.30
2023-02-22T07:45:00.543Z,8.26
2023-02-22T07:47:30.425Z,8.11
2023-02-22T07:50:00.273Z,8.59
2023-02-22T07:52:29.867Z,8.64
2023-02-22T07:55:02.159Z,8.36
2023-02-22T07:57:31.821Z,8.75
2023-02-22T08:00:01.746Z,8.77
2023-02-22T08:02:34.413Z,8.82
2023-02-22T08:05:04.098Z,8.99
2023-02-22T08:07:33.743Z,9.07
2023-02-22T08:10:10.312Z,8.91
2023-02-22T08:13:24.823Z,7.57
2023-02-22T11:29:37.081Z,13.52
2023-02-22T11:32:21.508Z,14.42
2023-02-22T11:35:03.426Z,13.39
2023-02-22T11:37:39.260Z,14.38
2023-02-22T11:40:18.479Z,13.40
2023-02-22T11:42:49.039Z,13.93
2023-02-22T11:45:25.096Z,14.21
2023-02-22T11:47:57.358Z,14.41
2023-02-22T11:50:31.792Z,13.38
2023-02-22T11:53:17.236Z,13.31
2023-02-22T11:55:54.750Z,14.22
2023-02-22T11:58:35.316Z,14.34
2023-02-22T12:01:17.526Z,14.35
2023-02-22T12:04:18.908Z,14.43
2023-02-22T12:06:58.464Z,14.27
2023-02-22T12:09:37.832Z,14.39
2023-02-22T12:12:19.026Z,14.65
2023-02-22T12:15:03.104Z,14.71
2023-02-22T12:18:00.066Z,14.81
2023-02-22T12:20:42.632Z,14.89
2023-02-22T12:23:26.149Z,14.49
2023-02-22T12:26:01.767Z,14.82
2023-02-22T12:28:38.702Z,14.88
2023-02-22T12:31:20.973Z,14.99
2023-02-22T12:34:02.822Z,15.25
2023-02-22T12:36:39.285Z,15.03
2023-02-22T12:39:27.463Z,15.02
2023-02-22T12:41:58.768Z,15.18
2023-02-22T12:44:33.963Z,15.16
2023-02-22T12:47:05.625Z,15.44
2023-02-22T12:49:43.001Z,15.64
2023-02-22T12:52:22.260Z,15.55
2023-02-22T12:55:31.380Z,15.63
2023-02-22T13:04:20.509Z,14.00
2023-02-22T13:30:30.250Z,14.80
2023-02-22T16:30:32.645Z,13.51
2023-02-22T16:33:34.192Z,14.50
2023-02-22T16:36:27.691Z,13.64
2023-02-22T16:39:39.801Z,13.61
2023-02-22T16:42:24.508Z,14.09
2023-02-22T16:45:46.464Z,13.33
2023-02-22T16:48:30.215Z,12.52
2023-02-22T16:51:44.328Z,12.70
2023-02-22T16:54:38.059Z,12.93
2023-02-22T16:57:46.407Z,13.02
2023-02-22T17:00:33.004Z,13.62
2023-02-22T17:03:17.578Z,14.04
2023-02-22T17:06:05.406Z,13.96
2023-02-22T17:09:03.317Z,13.86
2023-02-22T17:12:01.325Z,12.48
2023-02-22T17:14:47.720Z,13.35
2023-02-22T17:17:44.069Z,12.63
2023-02-22T17:29:05.024Z,12.10
2023-02-22T17:32:32.264Z,13.09
2023-02-22T17:40:12.797Z,12.30
2023-02-22T17:45:50.548Z,11.50
2023-02-22T17:48:32.359Z,11.92
2023-02-22T17:51:54.842Z,12.09
2023-02-22T17:55:30.776Z,13.04
2023-02-22T18:01:51.085Z,11.72
2023-02-22T18:05:31.365Z,11.63
2023-02-22T18:08:59.231Z,11.88
2023-02-22T18:12:46.760Z,11.96
2023-02-22T18:19:38.949Z,11.35
2023-02-22T18:22:53.831Z,11.34
2023-02-22T18:26:03.862Z,11.86
2023-02-22T18:28:44.964Z,11.27
2023-02-22T18:31:19.647Z,11.57
2023-02-22T18:33:51.773Z,12.03
2023-02-22T18:36:26.595Z,12.41
2023-02-22T18:39:03.547Z,11.27
2023-02-22T18:41:36.286Z,12.32
2023-02-22T18:44:10.565Z,11.90
2023-02-22T18:46:40.816Z,12.33
2023-02-22T18:49:15.293Z,10.55
2023-02-22T18:51:46.352Z,11.04
2023-02-22T18:54:22.219Z,11.74
2023-02-22T18:56:52.065Z,10.62
2023-02-22T18:59:25.074Z,11.58
2023-02-22T19:01:54.951Z,11.74
2023-02-22T19:04:25.196Z,12.30
2023-02-22T19:06:57.650Z,12.37
2023-02-22T19:09:29.965Z,12.10
2023-02-22T19:11:59.687Z,11.99
2023-02-22T19:14:29.422Z,12.10
2023-02-22T19:17:01.536Z,12.07
2023-02-22T19:19:31.679Z,12.12
2023-02-22T19:22:01.346Z,12.07
2023-02-22T19:24:33.641Z,12.11
2023-02-22T19:27:05.412Z,11.59
2023-02-22T19:29:38.148Z,12.08
2023-02-22T19:32:08.035Z,12.06
2023-02-22T19:34:38.218Z,11.79
2023-02-22T19:37:08.742Z,11.98
2023-02-22T19:39:42.430Z,11.92
2023-02-22T19:42:12.771Z,11.84
2023-02-22T19:44:42.485Z,11.87
2023-02-22T19:47:12.105Z,11.91
2023-02-22T19:49:41.892Z,11.58
2023-02-22T19:52:11.519Z,11.59
2023-02-22T19:54:44.545Z,11.84
2023-02-22T19:57:16.114Z,11.77
2023-02-22T19:59:46.128Z,11.76
2023-02-22T20:02:15.937Z,11.85
2023-02-22T20:04:50.083Z,11.56
2023-02-22T20:07:19.805Z,11.54
2023-02-22T20:09:52.108Z,11.73
2023-02-22T20:12:21.844Z,11.81
2023-02-22T20:14:51.477Z,11.40
2023-02-22T20:17:21.097Z,11.82
2023-02-22T20:19:50.780Z,11.79
2023-02-22T20:22:20.881Z,11.86
2023-02-22T20:24:53.352Z,11.82
2023-02-22T20:27:24.401Z,11.77
2023-02-22T20:29:54.065Z,11.81
2023-02-22T20:32:24.717Z,11.80
2023-02-22T20:34:54.870Z,11.76
2023-02-22T20:37:24.582Z,11.77
2023-02-22T20:39:56.832Z,11.71
2023-02-22T20:42:26.445Z,11.56
2023-02-22T20:45:01.718Z,11.69
2023-02-22T20:47:31.552Z,11.74
2023-02-22T20:50:01.224Z,11.77
2023-02-22T20:52:30.909Z,11.56
2023-02-22T20:55:04.315Z,11.72
2023-02-22T20:57:33.995Z,11.77
2023-02-22T21:00:03.721Z,11.47
2023-02-22T21:02:33.413Z,11.64
2023-02-22T21:05:03.083Z,11.44
2023-02-22T21:07:32.795Z,11.72
2023-02-22T21:10:06.111Z,11.77
2023-02-22T21:12:36.730Z,11.71
2023-02-22T21:15:07.783Z,11.52
2023-02-22T21:17:37.652Z,11.33
2023-02-22T21:20:12.245Z,11.55
2023-02-22T21:22:43.869Z,11.42
2023-02-22T21:25:16.729Z,11.46
2023-02-22T21:27:47.126Z,11.32
2023-02-22T21:30:17.859Z,11.41
2023-02-22T21:32:47.473Z,11.36
2023-02-22T21:35:17.176Z,11.24
2023-02-22T21:37:46.800Z,11.41
2023-02-22T21:40:21.844Z,11.24
2023-02-22T21:42:52.024Z,11.28
2023-02-22T21:45:23.391Z,11.30
2023-02-22T21:47:54.720Z,11.23
2023-02-22T21:50:25.571Z,11.32
2023-02-22T21:52:55.384Z,11.27
2023-02-22T21:55:27.633Z,11.30
2023-02-22T21:57:57.237Z,11.14
2023-02-22T22:00:38.136Z,11.17
2023-02-22T22:03:12.796Z,11.07
2023-02-22T22:05:45.315Z,11.05
2023-02-22T22:08:19.543Z,10.85
2023-02-22T22:10:56.480Z,11.04
2023-02-22T22:13:28.117Z,10.71
2023-02-22T22:15:57.922Z,10.96
2023-02-22T22:18:27.693Z,11.04
2023-02-22T22:20:57.313Z,11.01
2023-02-22T22:23:26.904Z,11.00
2023-02-22T22:26:10.855Z,10.89
2023-02-22T22:28:41.772Z,10.95
2023-02-22T22:31:12.577Z,10.99
2023-02-22T22:33:44.752Z,10.96
2023-02-22T22:36:16.664Z,10.92
2023-02-22T22:38:47.189Z,10.76
2023-02-22T22:41:21.942Z,10.92
2023-02-22T22:43:54.103Z,10.82
2023-02-22T22:46:24.151Z,10.69
2023-02-22T22:48:53.897Z,10.77
2023-02-22T22:51:23.825Z,10.81
2023-02-22T22:53:54.866Z,10.57
2023-02-22T22:56:28.127Z,10.84
2023-02-22T22:58:59.789Z,10.86
2023-02-22T23:01:34.296Z,10.88
2023-02-22T23:04:06.454Z,10.87
2023-02-22T23:06:39.280Z,10.82
2023-02-22T23:09:12.145Z,10.97
2023-02-22T23:11:46.386Z,10.74
2023-02-22T23:14:19.525Z,10.97
2023-02-22T23:16:50.119Z,10.74
2023-02-22T23:19:20.476Z,10.77
2023-02-22T23:21:51.408Z,10.87
2023-02-22T23:24:22.556Z,10.93
2023-02-22T23:26:54.873Z,10.97
2023-02-22T23:29:25.544Z,10.87
2023-02-22T23:31:55.294Z,10.86
2023-02-22T23:34:26.198Z,10.88
2023-02-22T23:36:55.902Z,10.96
2023-02-22T23:39:27.339Z,10.93
2023-02-22T23:42:01.273Z,10.83
2023-02-22T23:44:31.634Z,10.77
2023-02-22T23:47:02.537Z,10.81
2023-02-22T23:49:36.240Z,10.80
2023-02-22T23:52:06.706Z,10.77
2023-02-22T23:54:43.856Z,10.65
2023-02-22T23:57:17.617Z,10.52
2023-02-22T23:59:47.232Z,10.66
